createdAt,value
2018-06-24T00:02:21.074Z,90.38
2018-06-24T00:04:50.203Z,91.04
2018-06-24T00:07:20.093Z,90.51
2018-06-24T00:09:48.996Z,92.15
2018-06-24T00:12:18.500Z,91.08
2018-06-24T00:14:48.512Z,90.68
2018-06-24T00:17:18.024Z,91.32
2018-06-24T00:19:47.726Z,91.28
2018-06-24T00:22:17.993Z,91.50
2018-06-24T00:24:47.187Z,90.17
2018-06-24T00:27:17.139Z,91.10
2018-06-24T00:29:47.083Z,91.85
2018-06-24T00:32:16.597Z,90.16
2018-06-24T00:34:45.495Z,91.21
2018-06-24T00:37:14.454Z,91.42
2018-06-24T00:39:43.186Z,91.91
2018-06-24T00:42:12.106Z,91.33
2018-06-24T00:44:42.978Z,92.11
2018-06-24T00:47:11.560Z,92.30
2018-06-24T00:49:40.747Z,92.72
2018-06-24T00:52:09.986Z,92.79
2018-06-24T00:54:38.645Z,92.34
2018-06-24T00:57:07.558Z,92.80
2018-06-24T00:59:47.356Z,93.12
2018-06-24T01:02:16.978Z,92.83
2018-06-24T01:04:46.238Z,94.03
2018-06-24T01:07:15.513Z,94.27
2018-06-24T01:09:45.033Z,93.90
2018-06-24T01:12:14.911Z,92.75
2018-06-24T01:14:43.949Z,93.33
2018-06-24T01:17:13.351Z,92.66
2018-06-24T01:19:44.146Z,92.25
2018-06-24T01:22:13.684Z,92.46
2018-06-24T01:24:43.594Z,92.60
2018-06-24T01:27:12.266Z,92.69
2018-06-24T01:29:40.977Z,92.58
2018-06-24T01:32:09.642Z,92.53
2018-06-24T01:34:40.752Z,92.97
2018-06-24T01:37:10.749Z,93.32
2018-06-24T01:39:39.826Z,93.45
2018-06-24T01:42:09.816Z,94.13
2018-06-24T01:44:39.731Z,93.36
2018-06-24T01:47:09.522Z,93.35
2018-06-24T01:49:38.166Z,93.13
2018-06-24T01:52:07.414Z,93.52
2018-06-24T01:54:36.809Z,92.43
2018-06-24T01:57:06.941Z,93.07
2018-06-24T01:59:38.082Z,92.81
2018-06-24T02:02:07.991Z,92.61
2018-06-24T02:04:36.774Z,92.59
2018-06-24T02:07:06.686Z,92.18
2018-06-24T02:09:36.220Z,92.90
2018-06-24T02:12:04.783Z,93.02
2018-06-24T02:14:33.959Z,92.64
2018-06-24T02:17:04.078Z,92.44
2018-06-24T02:19:33.933Z,93.27
2018-06-24T02:22:03.449Z,93.91
2018-06-24T02:24:33.686Z,93.53
2018-06-24T02:27:03.577Z,93.00
2018-06-24T02:29:32.195Z,93.30
2018-06-24T02:32:01.582Z,93.64
2018-06-24T02:34:31.432Z,93.88
2018-06-24T02:37:00.931Z,92.20
2018-06-24T02:39:30.233Z,92.74
2018-06-24T02:41:59.534Z,91.75
2018-06-24T02:44:28.321Z,92.30
2018-06-24T02:46:59.421Z,92.96
2018-06-24T02:49:28.199Z,91.52
2018-06-24T02:51:57.381Z,92.66
2018-06-24T02:54:26.856Z,91.69
2018-06-24T02:56:56.049Z,92.27
2018-06-24T02:59:25.591Z,92.56
2018-06-24T03:01:54.504Z,93.46
2018-06-24T03:04:23.563Z,92.69
2018-06-24T03:06:52.167Z,93.92
2018-06-24T03:09:20.796Z,94.60
2018-06-24T03:11:49.356Z,93.95
2018-06-24T03:14:17.950Z,94.14
2018-06-24T03:16:47.205Z,93.15
2018-06-24T03:19:16.388Z,93.36
2018-06-24T03:21:45.045Z,94.09
2018-06-24T03:24:13.681Z,93.31
2018-06-24T03:26:42.557Z,93.71
2018-06-24T03:29:11.191Z,92.65
2018-06-24T03:31:40.557Z,93.23
2018-06-24T03:34:09.658Z,91.92
2018-06-24T03:36:38.264Z,92.22
2018-06-24T03:39:09.753Z,93.37
2018-06-24T03:41:38.378Z,92.62
2018-06-24T03:44:07.409Z,92.57
2018-06-24T03:46:36.255Z,91.83
2018-06-24T03:49:04.900Z,91.63
2018-06-24T03:51:33.505Z,91.35
2018-06-24T03:54:02.131Z,92.34
2018-06-24T03:56:31.138Z,92.85
2018-06-24T03:59:00.091Z,92.72
2018-06-24T04:01:28.966Z,92.69
2018-06-24T04:03:58.374Z,92.93
2018-06-24T04:06:27.000Z,91.50
2018-06-24T04:08:55.578Z,90.54
2018-06-24T04:11:24.578Z,90.87
2018-06-24T04:13:53.199Z,91.65
2018-06-24T04:16:22.068Z,91.14
2018-06-24T04:18:50.974Z,91.08
2018-06-24T04:21:19.588Z,90.86
2018-06-24T04:23:48.505Z,92.59
2018-06-24T04:26:17.108Z,91.66
2018-06-24T04:28:45.966Z,91.85
2018-06-24T04:31:14.569Z,91.78
2018-06-24T04:33:43.162Z,91.92
2018-06-24T04:36:12.041Z,92.05
2018-06-24T04:38:40.948Z,90.54
2018-06-24T04:41:11.465Z,90.90
2018-06-24T04:43:40.102Z,91.33
2018-06-24T04:46:09.305Z,91.11
2018-06-24T04:48:39.577Z,90.85
2018-06-24T04:51:09.381Z,91.42
2018-06-24T04:53:37.962Z,91.14
2018-06-24T04:56:06.883Z,90.23
2018-06-24T04:58:35.487Z,91.32
2018-06-24T05:01:04.149Z,90.31
2018-06-24T05:03:32.793Z,91.06
2018-06-24T05:06:01.414Z,90.98
2018-06-24T05:08:30.028Z,90.07
2018-06-24T05:10:58.720Z,91.49
2018-06-24T05:13:27.606Z,92.40
2018-06-24T05:15:56.252Z,91.14
2018-06-24T05:18:25.211Z,91.30
2018-06-24T05:20:54.050Z,89.83
2018-06-24T05:23:23.409Z,90.27
2018-06-24T05:25:52.638Z,89.98
2018-06-24T05:28:21.902Z,90.15
2018-06-24T05:30:50.846Z,90.05
2018-06-24T05:33:19.509Z,89.53
2018-06-24T05:35:48.481Z,89.26
2018-06-24T05:38:17.089Z,89.89
2018-06-24T05:40:45.964Z,89.18
2018-06-24T05:43:15.542Z,89.85
2018-06-24T05:45:44.134Z,91.34
2018-06-24T05:48:14.277Z,90.56
2018-06-24T05:50:44.398Z,90.01
2018-06-24T05:53:14.469Z,89.22
2018-06-24T05:55:43.421Z,89.31
2018-06-24T05:58:15.126Z,89.04
2018-06-24T06:00:46.005Z,88.71
2018-06-24T06:03:16.694Z,89.67
2018-06-24T06:05:45.530Z,90.02
2018-06-24T06:08:14.328Z,90.44
2018-06-24T06:10:45.518Z,88.58
2018-06-24T06:13:14.735Z,87.91
2018-06-24T06:15:43.908Z,88.07
2018-06-24T06:18:12.607Z,87.29
2018-06-24T06:20:41.306Z,88.25
2018-06-24T06:23:09.965Z,88.51
2018-06-24T06:25:38.553Z,89.23
2018-06-24T06:28:07.222Z,87.90
2018-06-24T06:30:35.801Z,88.90
2018-06-24T06:33:06.385Z,87.14
2018-06-24T06:35:35.122Z,88.16
2018-06-24T06:38:06.111Z,88.31
2018-06-24T06:40:36.010Z,89.53
2018-06-24T06:43:05.405Z,89.07
2018-06-24T06:45:35.161Z,88.28
2018-06-24T06:48:03.743Z,89.21
2018-06-24T06:50:33.004Z,89.82
2018-06-24T06:53:01.670Z,90.26
2018-06-24T06:55:30.291Z,89.93
2018-06-24T06:57:58.873Z,89.47
2018-06-24T07:00:27.478Z,90.65
2018-06-24T07:02:56.185Z,90.83
2018-06-24T07:05:25.167Z,89.51
2018-06-24T07:07:53.766Z,88.69
2018-06-24T07:10:23.344Z,89.68
2018-06-24T07:12:52.523Z,90.62
2018-06-24T07:15:21.950Z,88.85
2018-06-24T07:17:50.546Z,89.66
2018-06-24T07:20:19.340Z,89.44
2018-06-24T07:22:48.128Z,89.14
2018-06-24T07:25:16.813Z,90.19
2018-06-24T07:27:45.597Z,91.10
2018-06-24T07:30:14.549Z,89.27
2018-06-24T07:32:43.804Z,89.08
2018-06-24T07:35:12.869Z,89.12
2018-06-24T07:37:41.640Z,90.68
2018-06-24T07:40:10.852Z,89.54
2018-06-24T07:42:39.674Z,90.59
2018-06-24T07:45:08.388Z,91.36
2018-06-24T07:47:37.423Z,90.57
2018-06-24T07:50:06.105Z,91.12
2018-06-24T07:52:34.730Z,91.60
2018-06-24T07:55:03.522Z,92.17
2018-06-24T07:57:32.215Z,91.32
2018-06-24T08:00:01.001Z,92.29
2018-06-24T08:02:30.042Z,91.88
2018-06-24T08:04:59.115Z,91.52
2018-06-24T08:07:27.787Z,91.48
2018-06-24T08:09:56.409Z,91.11
2018-06-24T08:12:25.777Z,91.12
2018-06-24T08:14:55.538Z,91.26
2018-06-24T08:17:24.938Z,91.25
2018-06-24T08:19:54.049Z,90.30
2018-06-24T08:22:22.698Z,91.34
2018-06-24T08:24:51.313Z,91.61
2018-06-24T08:27:20.610Z,91.24
2018-06-24T08:29:49.607Z,91.28
2018-06-24T08:32:18.251Z,92.20
2018-06-24T08:34:47.180Z,92.17
2018-06-24T08:37:16.104Z,92.42
2018-06-24T08:39:45.021Z,91.69
2018-06-24T08:42:13.614Z,91.64
2018-06-24T08:44:42.348Z,91.85
2018-06-24T08:47:11.005Z,91.79
2018-06-24T08:49:40.322Z,91.46
2018-06-24T08:52:10.086Z,90.52
2018-06-24T08:54:39.144Z,91.08
2018-06-24T08:57:09.028Z,91.46
2018-06-24T08:59:39.773Z,91.54
2018-06-24T09:02:08.448Z,90.19
2018-06-24T09:04:37.066Z,90.72
2018-06-24T09:07:05.990Z,90.65
2018-06-24T09:09:34.724Z,89.18
2018-06-24T09:12:03.684Z,89.22
2018-06-24T09:14:32.643Z,89.92
2018-06-24T09:17:01.723Z,89.51
2018-06-24T09:19:30.952Z,90.96
2018-06-24T09:21:59.872Z,90.69
2018-06-24T09:24:28.845Z,91.93
2018-06-24T09:26:58.599Z,88.78
2018-06-24T09:29:28.128Z,89.70
2018-06-24T09:31:57.066Z,91.03
2018-06-24T09:34:26.134Z,90.81
2018-06-24T09:36:54.794Z,91.70
2018-06-24T09:39:23.647Z,91.80
2018-06-24T09:41:52.800Z,88.23
2018-06-24T09:44:22.149Z,88.50
2018-06-24T09:46:50.741Z,89.37
2018-06-24T09:49:19.475Z,89.33
2018-06-24T09:51:49.287Z,86.98
2018-06-24T09:54:17.901Z,87.43
2018-06-24T09:56:46.830Z,88.96
2018-06-24T09:59:15.740Z,89.85
2018-06-24T10:01:44.400Z,88.99
2018-06-24T10:04:13.200Z,89.77
2018-06-24T10:06:41.868Z,90.66
2018-06-24T10:09:11.582Z,88.47
2018-06-24T10:11:40.972Z,89.50
2018-06-24T10:14:09.909Z,88.84
2018-06-24T10:16:38.536Z,88.54
2018-06-24T10:19:07.215Z,88.87
2018-06-24T10:21:35.825Z,89.71
2018-06-24T10:24:04.453Z,88.41
2018-06-24T10:26:33.065Z,88.18
2018-06-24T10:29:02.003Z,88.14
2018-06-24T10:31:30.677Z,87.38
2018-06-24T10:33:59.380Z,88.64
2018-06-24T10:36:28.274Z,89.62
2018-06-24T10:38:57.350Z,91.01
2018-06-24T10:41:26.973Z,91.51
2018-06-24T10:43:56.504Z,92.00
2018-06-24T10:46:26.376Z,91.63
2018-06-24T10:48:54.989Z,90.03
2018-06-24T10:51:23.634Z,89.62
2018-06-24T10:53:52.372Z,86.20
2018-06-24T10:56:22.617Z,87.88
2018-06-24T10:58:52.275Z,86.97
2018-06-24T11:01:20.946Z,88.08
2018-06-24T11:03:50.102Z,87.50
2018-06-24T11:06:18.783Z,88.86
2018-06-24T11:08:47.401Z,89.93
2018-06-24T11:11:17.434Z,90.18
2018-06-24T11:13:46.912Z,85.59
2018-06-24T11:16:15.838Z,87.41
2018-06-24T11:18:44.797Z,85.34
2018-06-24T11:21:14.383Z,87.63
2018-06-24T11:23:42.490Z,87.99
2018-06-24T11:26:11.421Z,87.45
2018-06-24T11:28:40.160Z,86.25
2018-06-24T11:31:09.427Z,86.91
2018-06-24T11:33:38.397Z,85.44
2018-06-24T11:36:07.352Z,82.78
2018-06-24T11:38:36.789Z,84.76
2018-06-24T11:41:12.043Z,81.44
2018-06-24T11:43:40.649Z,81.20
2018-06-24T11:46:09.346Z,81.64
2018-06-24T11:48:38.019Z,79.99
2018-06-24T11:51:06.682Z,81.77
2018-06-24T11:53:35.591Z,84.18
2018-06-24T11:56:04.578Z,83.61
2018-06-24T11:58:33.594Z,84.26
2018-06-24T12:01:02.691Z,83.63
2018-06-24T12:03:31.729Z,84.47
2018-06-24T12:06:00.602Z,82.24
2018-06-24T12:08:29.180Z,83.04
2018-06-24T12:10:58.069Z,83.73
2018-06-24T12:13:26.965Z,85.34
2018-06-24T12:15:55.657Z,84.42
2018-06-24T12:18:24.492Z,82.65
2018-06-24T12:20:53.446Z,82.91
2018-06-24T12:23:22.296Z,82.13
2018-06-24T12:25:50.980Z,82.97
2018-06-24T12:28:19.606Z,80.35
2018-06-24T12:30:48.882Z,82.35
2018-06-24T12:33:17.945Z,83.38
2018-06-24T12:35:46.906Z,81.59
2018-06-24T12:38:16.145Z,82.70
2018-06-24T12:40:44.804Z,82.70
2018-06-24T12:43:13.604Z,82.78
2018-06-24T12:45:42.552Z,84.93
2018-06-24T12:48:11.737Z,86.52
2018-06-24T12:50:40.389Z,85.22
2018-06-24T12:53:09.008Z,85.59
2018-06-24T12:55:38.657Z,85.36
2018-06-24T12:58:07.333Z,83.41
2018-06-24T13:00:36.628Z,84.64
2018-06-24T13:03:04.647Z,83.40
2018-06-24T13:05:33.404Z,82.75
2018-06-24T13:08:02.289Z,83.51
2018-06-24T13:10:30.948Z,80.47
2018-06-24T13:12:59.853Z,77.89
2018-06-24T13:15:28.464Z,78.32
2018-06-24T13:17:57.070Z,76.82
2018-06-24T13:20:25.695Z,75.78
2018-06-24T13:22:54.345Z,77.53
2018-06-24T13:25:23.047Z,76.23
2018-06-24T13:27:52.085Z,76.97
2018-06-24T13:30:20.770Z,78.36
2018-06-24T13:32:49.452Z,78.80
2018-06-24T13:35:18.780Z,79.22
2018-06-24T13:37:47.485Z,79.30
2018-06-24T13:40:16.149Z,80.53
2018-06-24T13:42:44.768Z,78.90
2018-06-24T13:45:13.403Z,79.18
2018-06-24T13:47:42.224Z,79.31
2018-06-24T13:50:10.997Z,80.94
2018-06-24T13:52:39.594Z,80.18
2018-06-24T13:55:08.259Z,79.88
2018-06-24T13:57:36.903Z,80.35
2018-06-24T14:00:06.389Z,81.43
2018-06-24T14:02:34.993Z,82.71
2018-06-24T14:05:03.861Z,83.01
2018-06-24T14:07:32.510Z,82.49
2018-06-24T14:10:01.151Z,83.53
2018-06-24T14:12:30.095Z,80.74
2018-06-24T14:14:59.054Z,80.04
2018-06-24T14:17:28.353Z,80.28
2018-06-24T14:19:57.507Z,81.52
2018-06-24T14:22:26.401Z,80.93
2018-06-24T14:24:55.079Z,80.49
2018-06-24T14:27:24.070Z,80.33
2018-06-24T14:29:53.009Z,80.93
2018-06-24T14:32:21.975Z,78.38
2018-06-24T14:34:50.994Z,78.23
2018-06-24T14:37:19.702Z,78.45
2018-06-24T14:39:48.304Z,77.64
2018-06-24T14:42:16.951Z,76.40
2018-06-24T14:44:45.589Z,75.28
2018-06-24T14:47:14.520Z,75.67
2018-06-24T14:49:43.785Z,75.51
2018-06-24T14:52:12.433Z,77.09
2018-06-24T14:54:41.364Z,78.58
2018-06-24T14:57:10.029Z,76.33
2018-06-24T14:59:38.956Z,76.58
2018-06-24T15:02:08.165Z,75.91
2018-06-24T15:04:37.053Z,77.86
2018-06-24T15:07:06.322Z,77.27
2018-06-24T15:09:35.589Z,77.95
2018-06-24T15:12:05.066Z,79.30
2018-06-24T15:14:33.759Z,79.95
2018-06-24T15:17:02.398Z,80.36
2018-06-24T15:19:31.516Z,80.59
2018-06-24T15:22:00.163Z,80.04
2018-06-24T15:24:29.066Z,79.09
2018-06-24T15:26:57.694Z,78.87
2018-06-24T15:29:26.644Z,78.98
2018-06-24T15:31:56.001Z,76.83
2018-06-24T15:34:24.873Z,77.78
2018-06-24T15:36:53.507Z,79.02
2018-06-24T15:39:22.237Z,79.42
2018-06-24T15:41:51.164Z,79.50
2018-06-24T15:44:20.176Z,80.41
2018-06-24T15:46:49.524Z,80.80
2018-06-24T15:49:18.936Z,81.10
2018-06-24T15:51:48.140Z,81.03
2018-06-24T15:54:17.188Z,81.90
2018-06-24T15:56:46.224Z,82.91
2018-06-24T15:59:14.819Z,82.18
2018-06-24T16:01:43.536Z,82.39
2018-06-24T16:04:12.639Z,83.68
2018-06-24T16:06:41.589Z,83.48
2018-06-24T16:09:12.389Z,83.78
2018-06-24T16:11:41.525Z,84.71
2018-06-24T16:14:10.637Z,85.58
2018-06-24T16:16:46.185Z,85.34
2018-06-24T16:19:16.606Z,86.06
2018-06-24T16:21:46.242Z,85.63
2018-06-24T16:24:15.318Z,87.12
2018-06-24T16:26:44.806Z,87.40
2018-06-24T16:29:13.706Z,86.78
2018-06-24T16:31:42.473Z,86.31
2018-06-24T16:34:11.311Z,86.82
2018-06-24T16:36:40.090Z,85.67
2018-06-24T16:39:10.829Z,86.21
2018-06-24T16:41:39.697Z,86.01
2018-06-24T16:44:08.650Z,85.16
2018-06-24T16:46:37.364Z,85.95
2018-06-24T16:49:06.667Z,84.81
2018-06-24T16:51:35.508Z,85.89
2018-06-24T16:54:04.993Z,85.12
2018-06-24T16:56:33.719Z,85.38
2018-06-24T16:59:02.434Z,86.06
2018-06-24T17:01:31.651Z,85.01
2018-06-24T17:04:00.438Z,85.07
2018-06-24T17:06:29.251Z,85.96
2018-06-24T17:08:58.228Z,86.01
2018-06-24T17:11:26.867Z,86.06
2018-06-24T17:13:55.588Z,87.84
2018-06-24T17:16:24.321Z,88.53
2018-06-24T17:18:53.052Z,90.22
2018-06-24T17:21:21.688Z,91.13
2018-06-24T17:23:50.530Z,91.52
2018-06-24T17:26:19.214Z,92.04
2018-06-24T17:28:47.950Z,92.18
2018-06-24T17:31:17.231Z,92.71
2018-06-24T17:33:46.718Z,93.33
2018-06-24T17:36:15.463Z,92.65
2018-06-24T17:38:44.422Z,93.25
2018-06-24T17:41:14.034Z,93.97
2018-06-24T17:43:42.671Z,94.16
2018-06-24T17:46:11.350Z,93.06
2018-06-24T17:48:40.338Z,93.58
2018-06-24T17:51:09.020Z,94.09
2018-06-24T17:53:37.702Z,94.14
2018-06-24T17:56:06.396Z,94.36
2018-06-24T17:58:35.038Z,94.41
2018-06-24T18:01:03.946Z,94.37
2018-06-24T18:03:32.675Z,94.31
2018-06-24T18:06:02.706Z,94.08
2018-06-24T18:08:32.008Z,93.61
2018-06-24T18:11:01.313Z,94.34
2018-06-24T18:13:30.108Z,94.21
2018-06-24T18:15:58.843Z,94.32
2018-06-24T18:18:27.889Z,93.51
2018-06-24T18:20:57.250Z,93.77
2018-06-24T18:23:25.968Z,93.09
2018-06-24T18:25:55.145Z,94.10
2018-06-24T18:28:23.761Z,94.32
2018-06-24T18:30:52.461Z,93.53
2018-06-24T18:33:21.126Z,94.23
2018-06-24T18:35:50.104Z,94.29
2018-06-24T18:38:18.811Z,94.77
2018-06-24T18:40:47.533Z,95.60
2018-06-24T18:43:16.561Z,94.84
2018-06-24T18:45:45.577Z,95.25
2018-06-24T18:48:14.374Z,94.78
2018-06-24T18:50:43.049Z,94.86
2018-06-24T18:53:11.676Z,94.83
2018-06-24T18:55:40.280Z,95.66
2018-06-24T18:58:08.921Z,95.40
2018-06-24T19:00:37.694Z,94.87
2018-06-24T19:03:06.929Z,95.60
2018-06-24T19:05:35.524Z,95.16
2018-06-24T19:08:04.346Z,95.49
2018-06-24T19:10:33.365Z,95.74
2018-06-24T19:13:02.347Z,95.06
2018-06-24T19:15:31.069Z,95.26
2018-06-24T19:17:59.810Z,96.12
2018-06-24T19:20:28.874Z,96.26
2018-06-24T19:22:57.773Z,95.18
2018-06-24T19:25:27.038Z,95.75
2018-06-24T19:27:55.657Z,95.14
2018-06-24T19:30:24.773Z,95.04
2018-06-24T19:32:53.432Z,95.04
2018-06-24T19:35:22.125Z,94.26
2018-06-24T19:37:51.039Z,95.05
2018-06-24T19:40:20.306Z,95.40
2018-06-24T19:42:49.206Z,94.70
2018-06-24T19:45:18.063Z,94.14
2018-06-24T19:47:46.758Z,94.94
2018-06-24T19:50:15.776Z,95.17
2018-06-24T19:52:44.570Z,95.75
2018-06-24T19:55:13.635Z,95.61
2018-06-24T19:57:43.426Z,96.23
2018-06-24T20:00:12.113Z,95.96
2018-06-24T20:02:40.785Z,95.63
2018-06-24T20:05:09.556Z,95.68
2018-06-24T20:07:38.259Z,95.57
2018-06-24T20:10:06.966Z,95.12
2018-06-24T20:12:35.837Z,95.49
2018-06-24T20:15:06.695Z,95.78
2018-06-24T20:17:35.557Z,95.40
2018-06-24T20:20:04.894Z,94.92
2018-06-24T20:22:33.513Z,94.18
2018-06-24T20:25:02.434Z,94.45
2018-06-24T20:27:31.149Z,95.16
2018-06-24T20:29:59.866Z,94.92
2018-06-24T20:32:28.536Z,95.27
2018-06-24T20:34:57.431Z,94.92
2018-06-24T20:37:26.251Z,95.05
2018-06-24T20:39:54.830Z,94.37
2018-06-24T20:42:23.849Z,94.36
2018-06-24T20:44:52.464Z,94.87
2018-06-24T20:47:21.127Z,95.33
2018-06-24T20:49:50.632Z,95.39
2018-06-24T20:52:21.270Z,95.77
2018-06-24T20:54:49.852Z,95.47
2018-06-24T20:57:18.810Z,96.05
2018-06-24T20:59:47.955Z,95.24
2018-06-24T21:02:16.616Z,96.15
2018-06-24T21:04:45.234Z,95.65
2018-06-24T21:07:13.903Z,95.87
2018-06-24T21:09:42.758Z,95.83
2018-06-24T21:12:11.990Z,96.58
2018-06-24T21:14:42.135Z,95.92
2018-06-24T21:17:13.700Z,96.12
2018-06-24T21:19:43.099Z,95.67
2018-06-24T21:22:11.776Z,95.16
2018-06-24T21:24:41.193Z,95.27
2018-06-24T21:27:11.129Z,95.44
2018-06-24T21:29:41.096Z,95.44
2018-06-24T21:32:09.854Z,96.20
2018-06-24T21:34:38.779Z,95.56
2018-06-24T21:37:07.416Z,96.27
2018-06-24T21:39:36.313Z,95.93
2018-06-24T21:42:05.905Z,95.42
2018-06-24T21:44:34.641Z,95.57
2018-06-24T21:47:03.613Z,95.66
2018-06-24T21:49:32.581Z,96.43
2018-06-24T21:52:01.379Z,95.37
2018-06-24T21:54:29.991Z,95.57
2018-06-24T21:56:58.634Z,95.62
2018-06-24T21:59:27.324Z,95.53
2018-06-24T22:01:55.946Z,96.07
2018-06-24T22:04:25.192Z,96.58
2018-06-24T22:06:53.800Z,95.97
2018-06-24T22:09:23.146Z,95.22
2018-06-24T22:11:51.824Z,95.21
2018-06-24T22:14:20.792Z,95.18
2018-06-24T22:16:49.425Z,95.44
2018-06-24T22:19:18.104Z,95.55
2018-06-24T22:21:47.673Z,96.67
2018-06-24T22:24:16.316Z,95.86
2018-06-24T22:26:45.717Z,96.42
2018-06-24T22:29:14.826Z,96.62
2018-06-24T22:31:43.463Z,95.84
2018-06-24T22:34:12.120Z,96.35
2018-06-24T22:36:40.809Z,95.76
2018-06-24T22:39:11.341Z,95.92
2018-06-24T22:41:39.957Z,95.97
2018-06-24T22:44:08.909Z,96.03
2018-06-24T22:46:37.533Z,96.43
2018-06-24T22:49:06.452Z,96.12
2018-06-24T22:51:35.495Z,95.94
2018-06-24T22:54:04.130Z,95.82
2018-06-24T22:56:33.077Z,95.67
2018-06-24T22:59:12.975Z,96.46
2018-06-24T23:01:41.916Z,95.74
2018-06-24T23:04:10.774Z,96.39
2018-06-24T23:06:39.637Z,95.75
2018-06-24T23:09:09.171Z,95.95
2018-06-24T23:11:37.930Z,95.77
2018-06-24T23:14:06.603Z,96.08
2018-06-24T23:16:35.565Z,96.37
2018-06-24T23:19:04.225Z,95.79
2018-06-24T23:21:33.355Z,96.34
2018-06-24T23:24:01.958Z,95.76
2018-06-24T23:26:30.791Z,96.47
2018-06-24T23:29:00.113Z,95.87
2018-06-24T23:31:28.942Z,95.82
2018-06-24T23:33:57.541Z,96.08
2018-06-24T23:36:26.100Z,96.11
2018-06-24T23:38:55.030Z,96.18
2018-06-24T23:41:23.894Z,96.76
2018-06-24T23:43:52.529Z,96.50
2018-06-24T23:46:21.419Z,96.20
2018-06-24T23:48:50.049Z,96.71
2018-06-24T23:51:18.613Z,96.60
2018-06-24T23:53:47.890Z,96.40
2018-06-24T23:56:16.463Z,96.09
2018-06-24T23:58:45.144Z,95.91
